Time;durP1;ratioP1;P1;durP2;ratioP2;P2;SDS_P1;SDS_P2;PMS_P1;PMS_P2;Temp;Humidity;BMP_temperature;BMP_pressure;BME280_temperature;BME280_humidity;BME280_pressure;Samples;Min_cycle;Max_cycle;Signal;HPM_P1;HPM_P2
2022/02/26 00:02:48;;;;;;;;;;;;;;;22.23;25.37;96640.22;10422183;28;1851;-45
2022/02/26 00:07:48;;;;;;;;;;;;;;;22.26;26.07;96648.41;10420285;28;1832;-47
2022/02/26 00:12:52;;;;;;;;;;;;;;;22.22;26.01;96652.63;10422034;28;1990;-46
2022/02/26 00:17:53;;;;;;;;;;;;;;;22.24;26.04;96649.72;10441725;28;1783;-47
2022/02/26 00:22:53;;;;;;;;;;;;;;;22.20;25.81;96665.28;10419373;28;1855;-48
2022/02/26 00:27:53;;;;;;;;;;;;;;;22.20;25.37;96664.50;10424314;28;1815;-45
2022/02/26 00:32:54;;;;;;;;;;;;;;;22.19;26.09;96674.28;10417880;28;1910;-45
2022/02/26 00:37:55;;;;;;;;;;;;;;;22.19;25.96;96674.28;10424396;28;1812;-50
2022/02/26 00:42:55;;;;;;;;;;;;;;;22.19;25.93;96689.34;10441333;28;1940;-47
2022/02/26 00:47:56;;;;;;;;;;;;;;;22.18;25.91;96682.44;10422835;28;1837;-49
2022/02/26 00:52:56;;;;;;;;;;;;;;;22.18;25.94;96688.53;10403955;28;2013;-47
2022/02/26 00:57:57;;;;;;;;;;;;;;;22.14;25.66;96695.38;10440523;28;1906;-45
2022/02/26 01:02:57;;;;;;;;;;;;;;;22.17;26.03;96692.25;10421330;28;1797;-46
2022/02/26 01:07:58;;;;;;;;;;;;;;;22.14;25.82;96698.03;10447497;28;1830;-46
2022/02/26 01:12:58;;;;;;;;;;;;;;;22.14;25.79;96703.31;10429026;28;1965;-47
2022/02/26 01:17:58;;;;;;;;;;;;;;;22.12;25.91;96715.19;10425099;28;1806;-51
2022/02/26 01:22:58;;;;;;;;;;;;;;;22.11;25.78;96718.88;10428151;28;1809;-46
2022/02/26 01:27:59;;;;;;;;;;;;;;;22.09;26.00;96716.50;10428072;28;1833;-47
2022/02/26 01:32:59;;;;;;;;;;;;;;;22.09;25.72;96721.78;10426633;28;1973;-48
2022/02/26 01:37:59;;;;;;;;;;;;;;;22.11;25.41;96724.97;10428267;28;1866;-48
2022/02/26 01:43:00;;;;;;;;;;;;;;;22.09;25.72;96719.13;10448224;28;1906;-49
2022/02/26 01:48:00;;;;;;;;;;;;;;;22.06;25.29;96721.50;10445349;28;1844;-50
2022/02/26 01:53:01;;;;;;;;;;;;;;;22.06;25.44;96722.31;10446664;28;1906;-44
2022/02/26 01:58:01;;;;;;;;;;;;;;;22.06;25.14;96724.16;10431776;28;1939;-48
2022/02/26 02:03:01;;;;;;;;;;;;;;;22.03;25.08;96716.75;10447910;28;1877;-49
2022/02/26 02:08:02;;;;;;;;;;;;;;;22.04;25.05;96728.88;10445394;28;2447;-52
2022/02/26 02:13:02;;;;;;;;;;;;;;;22.02;25.22;96718.59;10428136;28;2317;-51
2022/02/26 02:18:03;;;;;;;;;;;;;;;22.05;25.08;96735.78;10421301;28;2048;-49
2022/02/26 02:23:05;;;;;;;;;;;;;;;22.04;25.09;96728.88;10445028;28;1967;-50
2022/02/26 02:28:06;;;;;;;;;;;;;;;22.04;24.79;96734.16;10422793;28;2200;-49
2022/02/26 02:33:22;;;;;;;;;;;;;;;22.04;25.38;96736.81;10440016;28;1977;-50
2022/02/26 02:38:23;;;;;;;;;;;;;;;22.03;25.23;96743.94;10445612;28;1928;-48
2022/02/26 02:43:23;;;;;;;;;;;;;;;22.01;25.19;96746.03;10442971;28;1842;-50
2022/02/26 02:48:24;;;;;;;;;;;;;;;22.01;25.36;96746.03;10445191;28;1928;-45
2022/02/26 02:53:25;;;;;;;;;;;;;;;22.02;24.76;96746.84;10440778;28;2123;-53
2022/02/26 02:58:26;;;;;;;;;;;;;;;22.02;24.43;96755.56;10442526;28;2185;-49
2022/02/26 03:03:27;;;;;;;;;;;;;;;22.02;24.64;96758.19;10442456;28;2178;-47
2022/02/26 03:08:27;;;;;;;;;;;;;;;22.00;24.64;96775.34;10441460;28;1991;-51
2022/02/26 03:13:29;;;;;;;;;;;;;;;22.02;24.64;96773.22;10441905;28;2019;-48
2022/02/26 03:18:29;;;;;;;;;;;;;;;22.02;24.55;96784.59;10425666;28;1921;-45
2022/02/26 03:23:32;;;;;;;;;;;;;;;22.02;24.13;96776.69;10443205;28;1992;-48
2022/02/26 03:28:32;;;;;;;;;;;;;;;22.01;24.55;96788.28;10437789;28;2007;-45
2022/02/26 03:33:33;;;;;;;;;;;;;;;22.00;24.44;96801.75;10423155;28;2124;-46
2022/02/26 03:38:35;;;;;;;;;;;;;;;22.01;24.23;96796.19;10442665;28;1980;-53
2022/02/26 03:43:35;;;;;;;;;;;;;;;22.00;23.78;96799.91;10423547;28;1922;-52
2022/02/26 03:48:36;;;;;;;;;;;;;;;21.99;23.59;96797.53;10424849;28;1985;-53
2022/02/26 03:53:36;;;;;;;;;;;;;;;21.98;23.92;96806.47;10416535;28;1962;-54
2022/02/26 03:58:37;;;;;;;;;;;;;;;21.98;24.30;96811.75;10463353;22;1948;-58
2022/02/26 04:03:37;;;;;;;;;;;;;;;21.97;23.99;96824.16;10457299;28;1956;-56
2022/02/26 04:08:37;;;;;;;;;;;;;;;21.98;23.55;96824.97;10433805;28;1919;-57
2022/02/26 04:13:37;;;;;;;;;;;;;;;21.95;23.48;96830.78;10437265;28;1991;-59
2022/02/26 04:18:38;;;;;;;;;;;;;;;21.94;24.24;96834.44;10435800;28;2149;-58
2022/02/26 04:23:39;;;;;;;;;;;;;;;21.95;23.93;96831.53;10430481;28;2002;-57
2022/02/26 04:28:39;;;;;;;;;;;;;;;21.90;23.13;96828.91;10434921;28;1952;-58
2022/02/26 04:33:40;;;;;;;;;;;;;;;21.90;23.11;96826.25;10433507;28;1982;-57
2022/02/26 04:38:40;;;;;;;;;;;;;;;21.93;23.95;96841.56;10434582;28;1907;-58
2022/02/26 04:43:42;;;;;;;;;;;;;;;21.91;23.30;96851.59;10437519;28;1890;-58
2022/02/26 04:48:42;;;;;;;;;;;;;;;21.90;23.27;96851.84;10443946;28;1940;-56
2022/02/26 04:53:43;;;;;;;;;;;;;;;21.90;23.56;96860.56;10443996;28;1987;-58
2022/02/26 04:58:45;;;;;;;;;;;;;;;21.90;23.22;96852.66;10438500;28;2016;-58
2022/02/26 05:03:46;;;;;;;;;;;;;;;21.96;24.17;96858.75;10433012;28;1988;-59
2022/02/26 05:08:46;;;;;;;;;;;;;;;21.89;23.05;96864.25;10430195;28;2087;-59
2022/02/26 05:13:47;;;;;;;;;;;;;;;21.85;22.89;96865.81;10439393;28;1939;-57
2022/02/26 05:18:48;;;;;;;;;;;;;;;21.84;22.83;96862.38;10434560;28;1943;-57
2022/02/26 05:23:49;;;;;;;;;;;;;;;21.85;23.06;96871.88;10429441;28;1889;-56
2022/02/26 05:28:49;;;;;;;;;;;;;;;21.82;22.88;96876.88;10432411;28;1967;-58
2022/02/26 05:33:50;;;;;;;;;;;;;;;21.81;22.79;96881.38;10439522;28;1983;-57
2022/02/26 05:38:50;;;;;;;;;;;;;;;21.80;22.77;96882.38;10440900;28;2012;-56
2022/02/26 05:43:51;;;;;;;;;;;;;;;21.79;22.70;96891.34;10436746;28;1971;-57
2022/02/26 05:48:51;;;;;;;;;;;;;;;21.81;22.76;96896.38;10433616;28;2153;-58
2022/02/26 05:53:51;;;;;;;;;;;;;;;21.80;22.83;96902.72;10435513;28;1967;-58
2022/02/26 05:58:52;;;;;;;;;;;;;;;21.82;22.73;96911.97;10435381;28;1852;-58
2022/02/26 06:03:52;;;;;;;;;;;;;;;21.80;22.58;96913.28;10441730;28;1886;-56
2022/02/26 06:08:53;;;;;;;;;;;;;;;21.79;22.87;96916.94;10436232;28;1830;-58
2022/02/26 06:13:54;;;;;;;;;;;;;;;21.84;23.59;96920.44;10438262;28;2009;-57
2022/02/26 06:18:55;;;;;;;;;;;;;;;21.81;22.98;96920.97;10432444;28;2026;-57
2022/02/26 06:23:55;;;;;;;;;;;;;;;21.77;22.77;96927.75;10427540;28;1824;-59
2022/02/26 06:28:56;;;;;;;;;;;;;;;21.76;23.32;96938.56;10430623;28;2168;-56
2022/02/26 06:33:56;;;;;;;;;;;;;;;21.76;22.65;96944.63;10431166;28;1975;-58
2022/02/26 06:38:56;;;;;;;;;;;;;;;21.74;22.70;96952.00;10434846;28;1871;-57
2022/02/26 06:43:57;;;;;;;;;;;;;;;21.75;22.77;96950.16;10436580;28;1815;-59
2022/02/26 06:48:57;;;;;;;;;;;;;;;21.75;22.95;96960.72;10435024;28;1991;-60
2022/02/26 06:53:57;;;;;;;;;;;;;;;21.74;22.80;96961.78;10433435;28;1906;-58
2022/02/26 06:58:58;;;;;;;;;;;;;;;21.74;22.84;96965.19;10431420;28;1822;-60
2022/02/26 07:03:58;;;;;;;;;;;;;;;21.75;23.68;96977.38;10436374;28;1826;-55
2022/02/26 07:08:58;;;;;;;;;;;;;;;21.80;22.80;96989.81;10433532;28;1876;-59
2022/02/26 07:13:59;;;;;;;;;;;;;;;21.77;22.55;96992.94;10426797;28;1898;-58
2022/02/26 07:19:00;;;;;;;;;;;;;;;21.77;22.93;96998.22;10434482;28;1823;-57
2022/02/26 07:24:00;;;;;;;;;;;;;;;21.74;22.72;97004.78;10433714;28;1936;-57
2022/02/26 07:29:01;;;;;;;;;;;;;;;21.76;22.99;97007.19;10432587;28;1933;-54
2022/02/26 07:34:02;;;;;;;;;;;;;;;21.72;22.57;97016.66;10436296;28;1969;-57
2022/02/26 07:39:02;;;;;;;;;;;;;;;21.86;24.06;97023.16;10430799;28;1782;-57
2022/02/26 07:44:05;;;;;;;;;;;;;;;21.80;22.89;97030.19;10415566;28;1713;-56
2022/02/26 07:49:05;;;;;;;;;;;;;;;21.76;22.98;97038.88;10435541;28;1500;-57
2022/02/26 07:54:05;;;;;;;;;;;;;;;21.77;23.29;97040.44;10431010;28;1910;-53
2022/02/26 07:59:06;;;;;;;;;;;;;;;21.78;23.89;97040.19;10420797;28;1428;-58
2022/02/26 08:04:09;;;;;;;;;;;;;;;21.87;24.72;97035.28;10437014;28;1483;-59
2022/02/26 08:09:11;;;;;;;;;;;;;;;21.92;25.34;97043.28;10432327;28;1531;-58
2022/02/26 08:14:11;;;;;;;;;;;;;;;21.92;25.45;97040.63;10434518;28;1910;-58
2022/02/26 08:19:12;;;;;;;;;;;;;;;21.92;25.12;97043.28;10442369;28;1491;-57
2022/02/26 08:24:14;;;;;;;;;;;;;;;22.01;25.52;97044.38;10443701;28;1457;-55
2022/02/26 08:29:15;;;;;;;;;;;;;;;21.95;25.24;97050.66;10442020;28;2132;-57
2022/02/26 08:34:15;;;;;;;;;;;;;;;21.95;25.48;97048.03;10440925;28;1941;-57
2022/02/26 08:39:16;;;;;;;;;;;;;;;22.14;26.11;97051.09;10444842;28;1396;-58
2022/02/26 08:44:16;;;;;;;;;;;;;;;22.14;25.88;97057.19;10440448;28;1436;-59
2022/02/26 08:49:17;;;;;;;;;;;;;;;22.11;26.23;97062.19;10441814;28;1472;-55
2022/02/26 08:54:17;;;;;;;;;;;;;;;22.10;26.26;97057.94;10441376;28;1902;-56
2022/02/26 08:59:18;;;;;;;;;;;;;;;22.08;25.41;97060.81;10443403;28;1833;-56
2022/02/26 09:04:18;;;;;;;;;;;;;;;22.03;26.24;97070.56;10446540;28;1519;-55
2022/02/26 09:09:19;;;;;;;;;;;;;;;22.02;26.94;97063.66;10433877;28;1519;-55
2022/02/26 09:14:19;;;;;;;;;;;;;;;21.99;27.04;97077.38;10444657;28;1898;-58
2022/02/26 09:19:19;;;;;;;;;;;;;;;21.96;27.21;97075.22;10441956;28;1519;-58
2022/02/26 09:24:20;;;;;;;;;;;;;;;21.91;26.85;97068.06;10442024;28;1420;-56
2022/02/26 09:29:20;;;;;;;;;;;;;;;21.88;27.35;97069.34;10443180;28;1583;-56
2022/02/26 09:34:20;;;;;;;;;;;;;;;21.90;27.02;97074.41;10433252;28;1905;-56
2022/02/26 09:39:21;;;;;;;;;;;;;;;21.86;27.30;97068.03;10437420;28;1779;-57
2022/02/26 09:44:21;;;;;;;;;;;;;;;21.77;26.93;97064.19;10441037;28;1822;-55
2022/02/26 09:49:21;;;;;;;;;;;;;;;21.82;27.39;97066.94;10444850;28;1955;-57
2022/02/26 09:54:22;;;;;;;;;;;;;;;21.81;27.12;97068.78;10438408;28;1913;-57
2022/02/26 09:59:22;;;;;;;;;;;;;;;21.78;27.16;97063.94;10440817;28;1959;-58
2022/02/26 10:04:23;;;;;;;;;;;;;;;21.82;27.19;97072.22;10468084;22;1864;-48
2022/02/26 10:09:23;;;;;;;;;;;;;;;21.83;27.56;97076.44;10447213;28;2028;-49
2022/02/26 10:14:23;;;;;;;;;;;;;;;21.79;26.93;97083.22;10418238;28;1967;-51
2022/02/26 10:19:28;;;;;;;;;;;;;;;21.79;27.18;97075.31;10435294;28;2138;-51
2022/02/26 10:24:28;;;;;;;;;;;;;;;21.83;26.82;97081.72;10419671;28;1790;-47
2022/02/26 10:29:29;;;;;;;;;;;;;;;21.88;27.24;97074.63;10416133;28;1910;-47
2022/02/26 10:34:34;;;;;;;;;;;;;;;21.89;27.19;97075.44;10421072;28;1858;-50
2022/02/26 10:39:35;;;;;;;;;;;;;;;21.83;27.26;97073.78;10385636;28;1851;-49
2022/02/26 10:44:36;;;;;;;;;;;;;;;21.81;27.33;97066.13;10435988;28;1841;-51
2022/02/26 10:49:54;;;;;;;;;;;;;;;21.82;26.64;97061.66;10422577;28;1969;-47
2022/02/26 10:55:00;;;;;;;;;;;;;;;21.82;26.90;97064.28;10423309;28;1878;-49
2022/02/26 11:00:00;;;;;;;;;;;;;;;21.81;27.36;97075.84;10420475;28;1967;-49
2022/02/26 11:05:01;;;;;;;;;;;;;;;21.79;27.31;97064.75;10434986;28;2177;-46
2022/02/26 11:10:02;;;;;;;;;;;;;;;21.79;27.29;97068.19;10433111;28;2016;-47
2022/02/26 11:15:03;;;;;;;;;;;;;;;21.77;26.75;97061.56;10423901;28;1841;-48
2022/02/26 11:20:04;;;;;;;;;;;;;;;21.74;27.05;97062.06;10418986;28;2171;-49
2022/02/26 11:25:04;;;;;;;;;;;;;;;21.74;26.80;97062.84;10430188;28;1782;-50
2022/02/26 11:30:05;;;;;;;;;;;;;;;21.73;26.59;97058.63;10413865;28;1906;-51
2022/02/26 11:35:16;;;;;;;;;;;;;;;21.73;27.03;97048.06;10421144;28;1918;-50
2022/02/26 11:40:17;;;;;;;;;;;;;;;21.75;26.70;97042.53;10435038;28;1828;-47
2022/02/26 11:45:18;;;;;;;;;;;;;;;21.74;26.87;97030.41;10421330;28;1820;-52
2022/02/26 11:50:21;;;;;;;;;;;;;;;21.75;26.68;97030.16;10415366;28;1973;-47
2022/02/26 11:55:36;;;;;;;;;;;;;;;21.76;26.31;97025.69;10432523;28;1570;-50
2022/02/26 12:00:47;;;;;;;;;;;;;;;21.76;26.24;97020.41;10430550;28;1787;-47
2022/02/26 12:05:49;;;;;;;;;;;;;;;21.76;26.31;97020.41;10408430;28;1858;-48
2022/02/26 12:10:54;;;;;;;;;;;;;;;21.80;26.91;97018.84;10432047;28;2030;-49
2022/02/26 12:16:09;;;;;;;;;;;;;;;21.79;26.44;97018.03;10418722;28;1960;-47
2022/02/26 12:21:19;;;;;;;;;;;;;;;21.80;26.84;97026.75;10436063;28;1970;-48
2022/02/26 12:26:19;;;;;;;;;;;;;;;21.77;26.16;97021.97;10410124;28;1992;-48
2022/02/26 12:31:20;;;;;;;;;;;;;;;21.76;26.54;97013.25;10400604;28;1914;-49
2022/02/26 12:36:20;;;;;;;;;;;;;;;21.76;26.46;97017.75;10435287;28;1844;-50
2022/02/26 12:41:28;;;;;;;;;;;;;;;21.75;26.18;97010.88;10430291;28;1999;-47
2022/02/26 12:46:28;;;;;;;;;;;;;;;21.75;25.90;97010.88;10430977;28;2169;-51
2022/02/26 12:51:29;;;;;;;;;;;;;;;21.75;26.10;96995.03;10415553;28;1978;-48
2022/02/26 12:56:33;;;;;;;;;;;;;;;21.75;26.22;97001.13;10419271;28;1865;-50
2022/02/26 13:01:36;;;;;;;;;;;;;;;21.71;25.87;96996.59;10420406;28;2302;-47
2022/02/26 13:06:37;;;;;;;;;;;;;;;21.76;26.31;96999.28;10419821;28;2008;-47
2022/02/26 13:11:43;;;;;;;;;;;;;;;22.00;31.94;96992.63;10424051;28;1975;-49
2022/02/26 13:16:55;;;;;;;;;;;;;;;22.55;32.65;96994.84;10442012;28;1858;-52
2022/02/26 13:21:57;;;;;;;;;;;;;;;22.53;33.55;96981.91;10420000;28;1870;-48
2022/02/26 13:26:57;;;;;;;;;;;;;;;22.23;34.87;96983.56;10442349;28;1912;-47
2022/02/26 13:31:59;;;;;;;;;;;;;;;22.20;35.34;96982.22;10429712;28;1914;-48
2022/02/26 13:36:59;;;;;;;;;;;;;;;22.37;35.45;96972.28;10424123;28;1910;-51
2022/02/26 13:42:00;;;;;;;;;;;;;;;22.76;34.91;96974.63;10407047;28;1780;-46
2022/02/26 13:47:07;;;;;;;;;;;;;;;22.65;36.05;96971.13;10435927;28;1864;-49
2022/02/26 13:52:09;;;;;;;;;;;;;;;23.29;35.36;96959.19;10440476;28;2002;-48
2022/02/26 13:57:11;;;;;;;;;;;;;;;24.18;32.62;96967.50;10419583;28;1898;-49
2022/02/26 14:02:24;;;;;;;;;;;;;;;24.68;31.52;96956.00;10436436;28;1952;-51
2022/02/26 14:07:37;;;;;;;;;;;;;;;24.00;33.15;96954.78;10439693;28;1807;-49
2022/02/26 14:12:38;;;;;;;;;;;;;;;23.17;33.76;96940.13;10437609;28;1921;-48
2022/02/26 14:17:39;;;;;;;;;;;;;;;22.79;32.75;96943.19;10422505;28;1766;-51
2022/02/26 14:22:40;;;;;;;;;;;;;;;22.59;29.39;96945.75;10415692;28;1811;-50
2022/02/26 14:27:47;;;;;;;;;;;;;;;22.49;29.95;96946.47;10438966;28;1853;-51
2022/02/26 14:32:49;;;;;;;;;;;;;;;22.42;28.97;96943.25;10419482;28;1910;-47
2022/02/26 14:37:49;;;;;;;;;;;;;;;22.39;29.94;96942.97;10417459;28;1845;-49
2022/02/26 14:42:50;;;;;;;;;;;;;;;22.34;30.55;96930.53;10413156;28;1825;-50
2022/02/26 14:47:50;;;;;;;;;;;;;;;22.33;30.58;96928.94;10436487;28;1829;-50
2022/02/26 14:52:51;;;;;;;;;;;;;;;22.31;30.26;96925.78;10421117;28;1965;-52
2022/02/26 14:57:52;;;;;;;;;;;;;;;22.25;30.32;96924.16;10440994;28;1771;-53
2022/02/26 15:02:53;;;;;;;;;;;;;;;22.20;30.12;96921.47;10439705;28;1802;-47
2022/02/26 15:07:53;;;;;;;;;;;;;;;22.17;30.00;96923.84;10423866;28;1857;-48
2022/02/26 15:12:54;;;;;;;;;;;;;;;22.10;29.99;96926.69;10439895;28;1977;-50
2022/02/26 15:17:54;;;;;;;;;;;;;;;22.06;29.52;96925.63;10421942;28;1859;-52
2022/02/26 15:22:55;;;;;;;;;;;;;;;22.03;29.05;96920.81;10420250;28;1783;-49
2022/02/26 15:27:55;;;;;;;;;;;;;;;22.05;28.93;96921.38;10439375;28;1778;-46
2022/02/26 15:32:55;;;;;;;;;;;;;;;22.06;29.69;96922.16;10418207;28;1963;-52
2022/02/26 15:37:56;;;;;;;;;;;;;;;22.13;29.61;96915.63;10430432;28;1932;-46
2022/02/26 15:42:56;;;;;;;;;;;;;;;22.10;29.84;96923.25;10396015;28;1813;-50
2022/02/26 15:47:57;;;;;;;;;;;;;;;21.71;27.46;96920.06;10433254;28;1829;-49
2022/02/26 15:52:58;;;;;;;;;;;;;;;21.60;27.46;96918.38;10423500;28;1883;-50
2022/02/26 15:57:58;;;;;;;;;;;;;;;21.84;29.60;96915.16;10417518;28;1862;-48
2022/02/26 16:02:59;;;;;;;;;;;;;;;21.71;27.55;96914.78;10411835;28;1809;-50
2022/02/26 16:07:59;;;;;;;;;;;;;;;21.25;26.01;96925.97;10374882;23;1859;-56
2022/02/26 16:12:59;;;;;;;;;;;;;;;21.12;26.00;96926.38;10360299;28;1975;-55
2022/02/26 16:18:00;;;;;;;;;;;;;;;20.82;25.02;96924.19;10334345;28;1903;-56
2022/02/26 16:23:00;;;;;;;;;;;;;;;20.94;26.17;96917.72;10361081;28;2189;-56
2022/02/26 16:28:01;;;;;;;;;;;;;;;21.15;26.58;96921.41;10356519;28;1898;-57
2022/02/26 16:33:02;;;;;;;;;;;;;;;21.31;26.64;96932.91;10358781;28;1902;-55
2022/02/26 16:38:02;;;;;;;;;;;;;;;21.39;26.91;96932.47;10353218;28;1843;-55
2022/02/26 16:43:02;;;;;;;;;;;;;;;21.46;26.21;96938.31;10361010;28;1883;-55
2022/02/26 16:48:03;;;;;;;;;;;;;;;21.51;26.05;96938.38;10357042;28;1832;-55
2022/02/26 16:53:03;;;;;;;;;;;;;;;21.57;26.04;96942.63;10365862;28;1969;-55
2022/02/26 16:58:04;;;;;;;;;;;;;;;21.58;25.78;96952.13;10347814;28;1816;-56
2022/02/26 17:03:05;;;;;;;;;;;;;;;21.65;26.70;96942.19;10345833;28;1813;-55
2022/02/26 17:08:06;;;;;;;;;;;;;;;21.67;25.92;96946.16;10361691;28;1816;-57
2022/02/26 17:13:08;;;;;;;;;;;;;;;21.76;27.34;96949.13;10371360;28;1934;-55
2022/02/26 17:18:09;;;;;;;;;;;;;;;21.88;27.78;96951.63;10345876;28;2048;-54
2022/02/26 17:23:09;;;;;;;;;;;;;;;21.75;27.53;96955.44;10349904;28;1848;-56
2022/02/26 17:28:09;;;;;;;;;;;;;;;21.70;27.22;96968.63;10337238;28;1804;-57
2022/02/26 17:33:10;;;;;;;;;;;;;;;21.63;26.97;96970.66;10339688;28;1927;-56
2022/02/26 17:38:11;;;;;;;;;;;;;;;21.62;27.43;96969.06;10363927;28;1922;-55
2022/02/26 17:43:16;;;;;;;;;;;;;;;21.63;27.92;96974.09;10360111;28;1781;-55
2022/02/26 17:48:17;;;;;;;;;;;;;;;21.65;28.67;96981.75;10358925;28;1898;-56
2022/02/26 17:53:18;;;;;;;;;;;;;;;21.69;28.37;96981.00;10348929;28;1918;-55
2022/02/26 17:58:18;;;;;;;;;;;;;;;21.63;27.92;96981.22;10344528;28;1891;-54
2022/02/26 18:03:18;;;;;;;;;;;;;;;21.65;28.78;96987.84;10354028;28;1790;-54
2022/02/26 18:08:19;;;;;;;;;;;;;;;21.81;28.21;96992.22;10344232;28;1877;-55
2022/02/26 18:13:20;;;;;;;;;;;;;;;21.79;27.10;96983.72;10356190;28;1993;-57
2022/02/26 18:18:20;;;;;;;;;;;;;;;21.72;27.04;96987.63;10368012;28;1477;-55
2022/02/26 18:23:20;;;;;;;;;;;;;;;21.76;27.46;96991.38;10365937;28;1516;-56
2022/02/26 18:28:22;;;;;;;;;;;;;;;21.76;27.06;96981.56;10356896;28;1463;-53
2022/02/26 18:33:24;;;;;;;;;;;;;;;21.75;27.25;96979.19;10341636;28;1907;-55
2022/02/26 18:38:24;;;;;;;;;;;;;;;21.78;27.35;96976.84;10368919;28;1440;-53
2022/02/26 18:43:25;;;;;;;;;;;;;;;21.77;27.12;96987.66;10356293;28;1556;-55
2022/02/26 18:48:25;;;;;;;;;;;;;;;21.85;28.21;96995.16;10360527;28;1435;-55
2022/02/26 18:53:26;;;;;;;;;;;;;;;21.81;27.04;96999.31;10347687;28;1999;-54
2022/02/26 18:58:26;;;;;;;;;;;;;;;21.80;27.39;97003.00;10364215;28;1503;-56
2022/02/26 19:03:26;;;;;;;;;;;;;;;21.82;27.10;96993.03;10343206;28;1493;-54
2022/02/26 19:08:27;;;;;;;;;;;;;;;21.80;27.44;96995.09;10338950;28;1556;-53
2022/02/26 19:13:29;;;;;;;;;;;;;;;21.84;27.49;96994.34;10369026;28;1977;-53
2022/02/26 19:18:29;;;;;;;;;;;;;;;21.82;26.98;96995.66;10339009;28;1540;-53
2022/02/26 19:23:29;;;;;;;;;;;;;;;21.82;27.52;97000.94;10350180;28;1557;-56
2022/02/26 19:28:30;;;;;;;;;;;;;;;21.80;27.15;96987.94;10355322;28;1558;-54
2022/02/26 19:33:30;;;;;;;;;;;;;;;21.79;26.40;96985.56;10364437;28;1902;-54
2022/02/26 19:38:30;;;;;;;;;;;;;;;21.79;26.91;96982.94;10361842;28;1479;-53
2022/02/26 19:43:31;;;;;;;;;;;;;;;21.79;26.53;96978.44;10365677;28;1524;-56
2022/02/26 19:48:31;;;;;;;;;;;;;;;21.79;26.62;96990.84;10367468;28;1441;-55
2022/02/26 19:53:32;;;;;;;;;;;;;;;21.81;26.43;96972.91;10365105;28;1910;-56
2022/02/26 19:58:32;;;;;;;;;;;;;;;21.78;26.50;96958.38;10367009;28;1463;-56
2022/02/26 20:03:32;;;;;;;;;;;;;;;21.80;26.55;96955.50;10360869;28;1519;-56
2022/02/26 20:08:33;;;;;;;;;;;;;;;21.80;26.49;96951.00;10342961;28;1471;-58
2022/02/26 20:13:34;;;;;;;;;;;;;;;21.81;27.03;96941.25;10367016;28;1898;-56
2022/02/26 20:18:34;;;;;;;;;;;;;;;21.82;27.08;96937.59;10353125;28;1710;-56
2022/02/26 20:23:34;;;;;;;;;;;;;;;21.90;27.09;96949.53;10325177;28;1570;-55
2022/02/26 20:28:35;;;;;;;;;;;;;;;22.00;26.98;96974.16;10335831;28;1688;-53
2022/02/26 20:33:36;;;;;;;;;;;;;;;21.88;26.60;96979.59;10348803;28;1910;-55
2022/02/26 20:38:36;;;;;;;;;;;;;;;21.83;26.68;96986.69;10346566;28;1477;-51
2022/02/26 20:43:37;;;;;;;;;;;;;;;21.80;26.81;96993.22;10339862;28;1753;-55
2022/02/26 20:48:40;;;;;;;;;;;;;;;21.79;26.78;96986.38;10368478;28;1555;-53
2022/02/26 20:53:40;;;;;;;;;;;;;;;21.78;26.48;96987.41;10346039;28;1914;-53
2022/02/26 20:58:41;;;;;;;;;;;;;;;21.78;26.68;96978.72;10370135;28;1552;-53
2022/02/26 21:03:41;;;;;;;;;;;;;;;21.77;26.42;96974.47;10340652;28;1594;-52
2022/02/26 21:08:41;;;;;;;;;;;;;;;21.75;26.11;96969.44;10364077;28;1873;-52
2022/02/26 21:13:42;;;;;;;;;;;;;;;21.75;26.34;96964.16;10367859;28;1914;-52
2022/02/26 21:18:42;;;;;;;;;;;;;;;21.75;26.18;96952.81;10372560;28;1584;-50
2022/02/26 21:23:42;;;;;;;;;;;;;;;21.75;26.28;96958.09;10365823;28;1532;-50
2022/02/26 21:28:43;;;;;;;;;;;;;;;21.74;26.16;96951.22;10361512;28;1811;-50
2022/02/26 21:33:44;;;;;;;;;;;;;;;21.73;25.60;96955.72;10360056;28;1914;-52
2022/02/26 21:38:45;;;;;;;;;;;;;;;21.70;25.27;96952.78;10343103;28;1780;-57
2022/02/26 21:43:47;;;;;;;;;;;;;;;21.68;25.83;96952.22;10363147;28;1776;-52
2022/02/26 21:48:48;;;;;;;;;;;;;;;21.80;27.38;96947.59;10367812;28;1765;-51
2022/02/26 21:53:48;;;;;;;;;;;;;;;21.74;24.99;96940.69;10341187;28;1986;-60
2022/02/26 21:58:49;;;;;;;;;;;;;;;21.92;26.62;96945.59;10346824;28;1899;-55
2022/02/26 22:03:50;;;;;;;;;;;;;;;21.83;26.33;96947.09;10365211;28;1827;-53
2022/02/26 22:08:51;;;;;;;;;;;;;;;21.81;26.90;96941.25;10363228;28;1954;-54
2022/02/26 22:13:52;;;;;;;;;;;;;;;21.80;26.29;96935.16;10362925;28;1902;-54
2022/02/26 22:18:53;;;;;;;;;;;;;;;21.77;25.41;96948.06;10364598;28;1563;-54
2022/02/26 22:23:53;;;;;;;;;;;;;;;21.78;26.05;96941.75;10346906;28;1475;-53
2022/02/26 22:28:54;;;;;;;;;;;;;;;21.76;24.42;96943.84;10347512;28;1624;-53
2022/02/26 22:33:55;;;;;;;;;;;;;;;21.76;25.59;96946.50;10395087;22;2072;-45
2022/02/26 22:38:55;;;;;;;;;;;;;;;21.76;25.53;96939.34;10445909;28;1458;-46
2022/02/26 22:43:56;;;;;;;;;;;;;;;21.78;25.78;96947.03;10434536;28;1461;-45
2022/02/26 22:48:56;;;;;;;;;;;;;;;21.77;25.48;96935.69;10406436;28;1482;-49
2022/02/26 22:53:57;;;;;;;;;;;;;;;21.77;24.97;96930.41;10403060;28;1914;-48
2022/02/26 22:58:57;;;;;;;;;;;;;;;21.78;25.61;96933.84;10416505;28;1471;-48
2022/02/26 23:03:58;;;;;;;;;;;;;;;21.80;26.13;96934.38;10414134;28;2052;-47
2022/02/26 23:08:59;;;;;;;;;;;;;;;21.81;25.91;96920.97;10415561;28;1631;-47
2022/02/26 23:14:00;;;;;;;;;;;;;;;21.86;26.46;96918.34;10418413;28;1963;-49
2022/02/26 23:19:00;;;;;;;;;;;;;;;21.85;26.88;96913.31;10402689;28;1681;-49
2022/02/26 23:24:00;;;;;;;;;;;;;;;21.84;27.28;96912.53;10393618;28;1970;-47
2022/02/26 23:29:01;;;;;;;;;;;;;;;21.88;26.69;96905.69;10390368;28;1803;-49
2022/02/26 23:34:01;;;;;;;;;;;;;;;21.85;27.09;96895.66;10400950;28;1931;-45
2022/02/26 23:39:01;;;;;;;;;;;;;;;21.82;26.88;96900.66;10393336;28;1859;-46
2022/02/26 23:44:02;;;;;;;;;;;;;;;21.82;27.05;96898.78;10385987;28;1850;-47
2022/02/26 23:49:02;;;;;;;;;;;;;;;21.79;26.93;96895.84;10397843;28;1842;-46
2022/02/26 23:54:02;;;;;;;;;;;;;;;21.75;27.33;96889.47;10397465;28;1988;-46
2022/02/26 23:59:03;;;;;;;;;;;;;;;21.70;27.35;96894.72;10397015;28;1910;-50
